sensor_id;sensor_type;location;lat;lon;timestamp;P1;P2;P0
55857;PMS7003;41779;52.360;31.026;2022-11-15T00:04:41;16.8;12;8.2
55857;PMS7003;41779;52.360;31.026;2022-11-15T00:09:39;11.6;9;7.2
55857;PMS7003;41779;52.360;31.026;2022-11-15T00:14:27;12;10;7.4
55857;PMS7003;41779;52.360;31.026;2022-11-15T00:19:55;14.2;10.2;7.8
55857;PMS7003;41779;52.360;31.026;2022-11-15T00:24:17;17;13.2;10.8
55857;PMS7003;41779;52.360;31.026;2022-11-15T00:29:55;17.6;12.4;8.8
55857;PMS7003;41779;52.360;31.026;2022-11-15T00:34:25;15.8;10;7.3
55857;PMS7003;41779;52.360;31.026;2022-11-15T00:39:55;14.2;8.4;6.8
55857;PMS7003;41779;52.360;31.026;2022-11-15T00:44:27;15.2;10.6;8.2
55857;PMS7003;41779;52.360;31.026;2022-11-15T00:49:13;18;12.6;9
55857;PMS7003;41779;52.360;31.026;2022-11-15T00:54:29;15.6;11.6;8.8
55857;PMS7003;41779;52.360;31.026;2022-11-15T00:59:29;19.4;12.6;8.8
55857;PMS7003;41779;52.360;31.026;2022-11-15T01:04:55;16.4;11.2;8.2
55857;PMS7003;41779;52.360;31.026;2022-11-15T01:09:53;11.8;10;7.6
55857;PMS7003;41779;52.360;31.026;2022-11-15T01:14:11;11;8.8;6.8
55857;PMS7003;41779;52.360;31.026;2022-11-15T01:19:43;13;9.4;6.8
55857;PMS7003;41779;52.360;31.026;2022-11-15T01:24:41;14.6;8.8;6.8
55857;PMS7003;41779;52.360;31.026;2022-11-15T01:29:31;12.4;9.6;7.2
55857;PMS7003;41779;52.360;31.026;2022-11-15T01:34:59;11;8.8;6.8
55857;PMS7003;41779;52.360;31.026;2022-11-15T01:39:21;10;8.4;6.6
55857;PMS7003;41779;52.360;31.026;2022-11-15T01:44:57;13.4;9.4;7.6
55857;PMS7003;41779;52.360;31.026;2022-11-15T01:49:21;12.4;8.8;6.4
55857;PMS7003;41779;52.360;31.026;2022-11-15T01:54:58;10.2;8.4;6
55857;PMS7003;41779;52.360;31.026;2022-11-15T01:59:31;10;7;6
55857;PMS7003;41779;52.360;31.026;2022-11-15T02:04:11;9.4;8.2;6.8
55857;PMS7003;41779;52.360;31.026;2022-11-15T02:09:33;10.6;8.2;6
55857;PMS7003;41779;52.360;31.026;2022-11-15T02:14:44;12.2;8.4;6.4
55857;PMS7003;41779;52.360;31.026;2022-11-15T02:20:06;10.8;9;7.4
55857;PMS7003;41779;52.360;31.026;2022-11-15T02:24:18;11.8;9;6.8
55857;PMS7003;41779;52.360;31.026;2022-11-15T02:29:11;16;13.2;10.4
55857;PMS7003;41779;52.360;31.026;2022-11-15T02:34:48;29.8;24.3;16
55857;PMS7003;41779;52.360;31.026;2022-11-15T02:39:44;44.4;34.8;23
55857;PMS7003;41779;52.360;31.026;2022-11-15T02:44:23;29.8;23;15.8
55857;PMS7003;41779;52.360;31.026;2022-11-15T02:50:00;16.6;13.2;10.2
55857;PMS7003;41779;52.360;31.026;2022-11-15T02:54:12;22.4;16.4;12.6
55857;PMS7003;41779;52.360;31.026;2022-11-15T03:00:01;21;17;13.6
55857;PMS7003;41779;52.360;31.026;2022-11-15T03:04:22;15;12.6;9.6
55857;PMS7003;41779;52.360;31.026;2022-11-15T03:09:32;13.6;12.2;9.4
55857;PMS7003;41779;52.360;31.026;2022-11-15T03:14:32;19;15.4;12
55857;PMS7003;41779;52.360;31.026;2022-11-15T03:19:12;22.2;15.8;12
55857;PMS7003;41779;52.360;31.026;2022-11-15T03:24:33;26.4;18.4;13.6
55857;PMS7003;41779;52.360;31.026;2022-11-15T03:29:43;25.2;17.8;13
55857;PMS7003;41779;52.360;31.026;2022-11-15T03:34:31;17.5;13.8;10.5
55857;PMS7003;41779;52.360;31.026;2022-11-15T03:39:59;20.8;15.6;11.2
55857;PMS7003;41779;52.360;31.026;2022-11-15T03:44:35;20.6;16.6;13.4
55857;PMS7003;41779;52.360;31.026;2022-11-15T03:49:57;22.2;16;12.2
55857;PMS7003;41779;52.360;31.026;2022-11-15T03:54:49;19.6;13.6;10.6
55857;PMS7003;41779;52.360;31.026;2022-11-15T03:59:41;16;12.8;10.8
55857;PMS7003;41779;52.360;31.026;2022-11-15T04:04:45;18;14.2;10.8
55857;PMS7003;41779;52.360;31.026;2022-11-15T04:09:09;12.2;9.8;7
55857;PMS7003;41779;52.360;31.026;2022-11-15T04:14:57;13.2;10.2;7
55857;PMS7003;41779;52.360;31.026;2022-11-15T04:19:27;17;10.2;7.8
55857;PMS7003;41779;52.360;31.026;2022-11-15T04:24:39;12.4;9.2;6.6
55857;PMS7003;41779;52.360;31.026;2022-11-15T04:29:09;11.8;9.6;7.4
55857;PMS7003;41779;52.360;31.026;2022-11-15T04:34:09;11;8.5;6.3
55857;PMS7003;41779;52.360;31.026;2022-11-15T04:39:19;12;9.2;6.6
55857;PMS7003;41779;52.360;31.026;2022-11-15T04:44:43;10.8;8.6;6.8
55857;PMS7003;41779;52.360;31.026;2022-11-15T04:49:19;14.8;10.2;8
55857;PMS7003;41779;52.360;31.026;2022-11-15T04:54:53;13.8;11.8;8.8
55857;PMS7003;41779;52.360;31.026;2022-11-15T04:59:19;11;9.2;7.8
55857;PMS7003;41779;52.360;31.026;2022-11-15T05:04:55;11.8;9.4;6.8
55857;PMS7003;41779;52.360;31.026;2022-11-15T05:09:43;10.8;7.2;5
55857;PMS7003;41779;52.360;31.026;2022-11-15T05:14:41;11.2;8;6.2
55857;PMS7003;41779;52.360;31.026;2022-11-15T05:19:55;14.2;8.4;6.4
55857;PMS7003;41779;52.360;31.026;2022-11-15T05:24:43;13.6;9.8;7
55857;PMS7003;41779;52.360;31.026;2022-11-15T05:29:55;13.6;8.8;7
55857;PMS7003;41779;52.360;31.026;2022-11-15T05:34:09;9.2;7.2;5.4
55857;PMS7003;41779;52.360;31.026;2022-11-15T05:39:43;10.8;7.5;5.5
55857;PMS7003;41779;52.360;31.026;2022-11-15T05:44:31;11.4;8;5.8
55857;PMS7003;41779;52.360;31.026;2022-11-15T05:49:19;13.2;10.8;9
55857;PMS7003;41779;52.360;31.026;2022-11-15T05:54:31;11.4;8;6.8
55857;PMS7003;41779;52.360;31.026;2022-11-15T05:59:55;10.2;7.2;5.2
55857;PMS7003;41779;52.360;31.026;2022-11-15T06:04:29;10.6;9;6.6
55857;PMS7003;41779;52.360;31.026;2022-11-15T06:09:57;8.4;5.2;4.4
55857;PMS7003;41779;52.360;31.026;2022-11-15T06:14:09;9.4;6;4.6
55857;PMS7003;41779;52.360;31.026;2022-11-15T06:19:55;7.8;5.2;4.4
55857;PMS7003;41779;52.360;31.026;2022-11-15T06:24:41;5.2;3.2;2.6
55857;PMS7003;41779;52.360;31.026;2022-11-15T06:29:37;7;4.2;3.6
55857;PMS7003;41779;52.360;31.026;2022-11-15T06:34:41;5.6;3.4;3.2
55857;PMS7003;41779;52.360;31.026;2022-11-15T06:39:07;6.5;5.5;4
55857;PMS7003;41779;52.360;31.026;2022-11-15T06:44:53;7.8;6.2;4.4
55857;PMS7003;41779;52.360;31.026;2022-11-15T06:49:07;7.2;5.4;4.6
55857;PMS7003;41779;52.360;31.026;2022-11-15T06:54:39;11.4;7.6;6.4
55857;PMS7003;41779;52.360;31.026;2022-11-15T06:59:27;6;4.4;3.2
55857;PMS7003;41779;52.360;31.026;2022-11-15T07:04:09;5.8;4.2;2.8
55857;PMS7003;41779;52.360;31.026;2022-11-15T07:09:31;5.4;3.2;2.4
55857;PMS7003;41779;52.360;31.026;2022-11-15T07:14:39;3.8;3.8;2.6
55857;PMS7003;41779;52.360;31.026;2022-11-15T07:19:27;4.6;2.8;2.6
55857;PMS7003;41779;52.360;31.026;2022-11-15T07:24:55;3.8;2.6;2
55857;PMS7003;41779;52.360;31.026;2022-11-15T07:29:09;4.6;2.8;2.4
55857;PMS7003;41779;52.360;31.026;2022-11-15T07:34:55;6;3.6;2.6
55857;PMS7003;41779;52.360;31.026;2022-11-15T07:39:21;3.5;2.8;2.5
55857;PMS7003;41779;52.360;31.026;2022-11-15T07:44:41;6;3.2;2.4
55857;PMS7003;41779;52.360;31.026;2022-11-15T07:49:45;4;2.8;2.2
55857;PMS7003;41779;52.360;31.026;2022-11-15T07:54:09;3.2;2.4;1.6
55857;PMS7003;41779;52.360;31.026;2022-11-15T07:59:53;6.4;3.6;2.8
55857;PMS7003;41779;52.360;31.026;2022-11-15T08:04:17;4.6;3.4;2.6
55857;PMS7003;41779;52.360;31.026;2022-11-15T08:09:41;10.6;6.2;6
55857;PMS7003;41779;52.360;31.026;2022-11-15T08:14:17;4.4;3.8;3.4
55857;PMS7003;41779;52.360;31.026;2022-11-15T08:19:10;6.8;5.2;3.4
55857;PMS7003;41779;52.360;31.026;2022-11-15T08:24:09;7.4;4.2;3.4
55857;PMS7003;41779;52.360;31.026;2022-11-15T08:29:41;10;6.6;4.6
55857;PMS7003;41779;52.360;31.026;2022-11-15T08:34:29;8.4;6.6;5
55857;PMS7003;41779;52.360;31.026;2022-11-15T08:39:53;12.3;8.3;5.5
55857;PMS7003;41779;52.360;31.026;2022-11-15T08:44:18;10;7.6;5.2
55857;PMS7003;41779;52.360;31.026;2022-11-15T08:49:53;9.8;7.6;6
55857;PMS7003;41779;52.360;31.026;2022-11-15T08:54:41;12.8;8.6;6.2
55857;PMS7003;41779;52.360;31.026;2022-11-15T08:59:39;10;5.2;4.2
55857;PMS7003;41779;52.360;31.026;2022-11-15T09:04:49;11.2;7.4;6
55857;PMS7003;41779;52.360;31.026;2022-11-15T09:09:17;11;6.8;5
55857;PMS7003;41779;52.360;31.026;2022-11-15T09:14:53;10.2;7.8;5.4
55857;PMS7003;41779;52.360;31.026;2022-11-15T09:19:15;10.4;7.6;6
55857;PMS7003;41779;52.360;31.026;2022-11-15T09:24:19;14.8;12.6;8.6
55857;PMS7003;41779;52.360;31.026;2022-11-15T09:29:07;13.6;10.2;7.4
55857;PMS7003;41779;52.360;31.026;2022-11-15T09:34:07;11.8;9.2;7
55857;PMS7003;41779;52.360;31.026;2022-11-15T09:39:29;14.3;10.3;7.5
55857;PMS7003;41779;52.360;31.026;2022-11-15T09:44:56;14.6;11.4;8.4
55857;PMS7003;41779;52.360;31.026;2022-11-15T09:49:29;15.6;10.4;7.4
55857;PMS7003;41779;52.360;31.026;2022-11-15T09:54:53;14.4;11.6;8.8
55857;PMS7003;41779;52.360;31.026;2022-11-15T09:59:22;14.8;9.8;8
55857;PMS7003;41779;52.360;31.026;2022-11-15T10:04:56;14.4;10.6;8.6
55857;PMS7003;41779;52.360;31.026;2022-11-15T10:09:54;16.4;11.4;9
55857;PMS7003;41779;52.360;31.026;2022-11-15T10:14:39;15.8;11.4;9.4
55857;PMS7003;41779;52.360;31.026;2022-11-15T10:19:42;16.6;11.8;8
55857;PMS7003;41779;52.360;31.026;2022-11-15T10:24:18;19.2;13.6;9.4
55857;PMS7003;41779;52.360;31.026;2022-11-15T10:29:51;20;14.6;10.6
55857;PMS7003;41779;52.360;31.026;2022-11-15T10:34:34;19.4;13.2;9.6
55857;PMS7003;41779;52.360;31.026;2022-11-15T10:39:43;18.5;13;9.5
55857;PMS7003;41779;52.360;31.026;2022-11-15T10:44:29;21.2;14.6;10.8
55857;PMS7003;41779;52.360;31.026;2022-11-15T10:49:25;22;16.4;11.4
55857;PMS7003;41779;52.360;31.026;2022-11-15T10:54:18;19.4;13.6;10.4
55857;PMS7003;41779;52.360;31.026;2022-11-15T10:59:42;17.4;14.6;9.8
55857;PMS7003;41779;52.360;31.026;2022-11-15T11:04:27;24.8;17.2;11.4
55857;PMS7003;41779;52.360;31.026;2022-11-15T11:09:57;25.2;18.4;13
55857;PMS7003;41779;52.360;31.026;2022-11-15T11:14:19;22.6;18.2;13.2
55857;PMS7003;41779;52.360;31.026;2022-11-15T11:19:46;22.6;17.8;12.8
55857;PMS7003;41779;52.360;31.026;2022-11-15T11:24:43;23.6;17;11.4
55857;PMS7003;41779;52.360;31.026;2022-11-15T11:29:34;20.4;16.8;11.6
55857;PMS7003;41779;52.360;31.026;2022-11-15T11:34:56;19.8;16.2;11.8
55857;PMS7003;41779;52.360;31.026;2022-11-15T11:39:20;22.6;17.2;12
55857;PMS7003;41779;52.360;31.026;2022-11-15T11:44:59;19.8;15;11.5
55857;PMS7003;41779;52.360;31.026;2022-11-15T11:49:56;21.6;16.2;12.2
55857;PMS7003;41779;52.360;31.026;2022-11-15T11:54:59;21.2;14.2;10.4
55857;PMS7003;41779;52.360;31.026;2022-11-15T11:59:32;22.4;15;11.2
55857;PMS7003;41779;52.360;31.026;2022-11-15T12:04:09;26.2;19.2;12.6
55857;PMS7003;41779;52.360;31.026;2022-11-15T12:09:33;19.4;15.4;10.6
55857;PMS7003;41779;52.360;31.026;2022-11-15T12:14:58;23.6;17.6;12.2
55857;PMS7003;41779;52.360;31.026;2022-11-15T12:19:17;21.8;15.8;12.2
55857;PMS7003;41779;52.360;31.026;2022-11-15T12:24:45;25.4;17.2;12
55857;PMS7003;41779;52.360;31.026;2022-11-15T12:29:20;21.6;17.8;11.8
55857;PMS7003;41779;52.360;31.026;2022-11-15T12:34:57;23.8;18.4;13.6
55857;PMS7003;41779;52.360;31.026;2022-11-15T12:40:04;22.8;17.8;12.2
55857;PMS7003;41779;52.360;31.026;2022-11-15T12:44:56;31;20;15.3
55857;PMS7003;41779;52.360;31.026;2022-11-15T12:49:46;26.4;21;14.6
55857;PMS7003;41779;52.360;31.026;2022-11-15T12:55:29;26;20.2;14.4
55857;PMS7003;41779;52.360;31.026;2022-11-15T12:59:54;23.8;19.6;14.2
55857;PMS7003;41779;52.360;31.026;2022-11-15T13:04:54;25.6;20.2;13.8
55857;PMS7003;41779;52.360;31.026;2022-11-15T13:09:51;24.4;17.8;12.4
55857;PMS7003;41779;52.360;31.026;2022-11-15T13:14:46;28.2;20.6;14.6
55857;PMS7003;41779;52.360;31.026;2022-11-15T13:19:19;28.6;22;13.8
55857;PMS7003;41779;52.360;31.026;2022-11-15T13:24:31;29.6;19.6;12
55857;PMS7003;41779;52.360;31.026;2022-11-15T13:29:55;25.8;18;12.6
55857;PMS7003;41779;52.360;31.026;2022-11-15T13:34:28;23.2;18.2;12.4
55857;PMS7003;41779;52.360;31.026;2022-11-15T13:39:41;26.4;21.2;14.2
55857;PMS7003;41779;52.360;31.026;2022-11-15T13:44:17;21.8;18.8;12.3
55857;PMS7003;41779;52.360;31.026;2022-11-15T13:49:57;25.6;19.4;13.4
55857;PMS7003;41779;52.360;31.026;2022-11-15T13:54:33;22.2;18;12.8
55857;PMS7003;41779;52.360;31.026;2022-11-15T13:59:44;23.8;18.4;11.8
55857;PMS7003;41779;52.360;31.026;2022-11-15T14:04:33;25.2;21;13.8
55857;PMS7003;41779;52.360;31.026;2022-11-15T14:09:32;27;20.2;13
55857;PMS7003;41779;52.360;31.026;2022-11-15T14:14:57;25.8;19.2;13.6
55857;PMS7003;41779;52.360;31.026;2022-11-15T14:19:57;28.2;20.8;14.4
55857;PMS7003;41779;52.360;31.026;2022-11-15T14:25:27;27.8;22.4;16.2
55857;PMS7003;41779;52.360;31.026;2022-11-15T14:29:31;30.2;24.2;16.4
55857;PMS7003;41779;52.360;31.026;2022-11-15T14:34:43;30;23.6;15.6
55857;PMS7003;41779;52.360;31.026;2022-11-15T14:39:31;25.6;22.4;14.4
55857;PMS7003;41779;52.360;31.026;2022-11-15T14:44:57;20.7;16.3;10.3
55857;PMS7003;41779;52.360;31.026;2022-11-15T14:49:29;25.2;19.2;13.2
55857;PMS7003;41779;52.360;31.026;2022-11-15T14:54:43;16.5;12.3;9.3
55857;PMS7003;41779;52.360;31.026;2022-11-15T14:59:09;21.3;15.8;11.8
55857;PMS7003;41779;52.360;31.026;2022-11-15T15:04:55;24.6;15.6;11
55857;PMS7003;41779;52.360;31.026;2022-11-15T15:09:31;21;15.6;10.4
55857;PMS7003;41779;52.360;31.026;2022-11-15T15:14:41;23.2;17;13.2
55857;PMS7003;41779;52.360;31.026;2022-11-15T15:19:43;20.4;13.6;9.6
55857;PMS7003;41779;52.360;31.026;2022-11-15T15:24:29;19.4;14.2;9.2
55857;PMS7003;41779;52.360;31.026;2022-11-15T15:29:53;19;13.6;9.8
55857;PMS7003;41779;52.360;31.026;2022-11-15T15:34:55;15.8;11.6;8.4
55857;PMS7003;41779;52.360;31.026;2022-11-15T15:39:55;18.4;13.6;9.6
55857;PMS7003;41779;52.360;31.026;2022-11-15T15:44:31;16.6;12;8.2
55857;PMS7003;41779;52.360;31.026;2022-11-15T15:49:18;16.2;13.4;9.6
55857;PMS7003;41779;52.360;31.026;2022-11-15T15:54:29;13.8;11;7.8
55857;PMS7003;41779;52.360;31.026;2022-11-15T15:59:55;13.8;12.3;9.8
55857;PMS7003;41779;52.360;31.026;2022-11-15T16:04:55;18;13;9.4
55857;PMS7003;41779;52.360;31.026;2022-11-15T16:09:53;15;10.8;7.8
55857;PMS7003;41779;52.360;31.026;2022-11-15T16:14:09;15.2;13.2;9.2
55857;PMS7003;41779;52.360;31.026;2022-11-15T16:19:19;14.4;11;8.2
55857;PMS7003;41779;52.360;31.026;2022-11-15T16:24:45;19;13.4;9.2
55857;PMS7003;41779;52.360;31.026;2022-11-15T16:29:41;13;10.4;7.6
55857;PMS7003;41779;52.360;31.026;2022-11-15T16:34:31;15.6;12.2;8.2
55857;PMS7003;41779;52.360;31.026;2022-11-15T16:39:19;17.8;12.6;8.8
55857;PMS7003;41779;52.360;31.026;2022-11-15T16:44:19;18.4;14.2;9.4
55857;PMS7003;41779;52.360;31.026;2022-11-15T16:49:33;19.4;12;9
55857;PMS7003;41779;52.360;31.026;2022-11-15T16:54:19;17.4;14;10
55857;PMS7003;41779;52.360;31.026;2022-11-15T16:59:53;20.5;13.5;9
55857;PMS7003;41779;52.360;31.026;2022-11-15T17:04:19;18.6;13;10
55857;PMS7003;41779;52.360;31.026;2022-11-15T17:09:09;19;15;9.6
55857;PMS7003;41779;52.360;31.026;2022-11-15T17:14:31;20.6;13.4;9.8
55857;PMS7003;41779;52.360;31.026;2022-11-15T17:19:55;17.8;14.8;9.2
55857;PMS7003;41779;52.360;31.026;2022-11-15T17:24:55;21.4;14;9.6
55857;PMS7003;41779;52.360;31.026;2022-11-15T17:29:19;19.8;15;10.4
55857;PMS7003;41779;52.360;31.026;2022-11-15T17:34:09;19.8;15.4;9.4
55857;PMS7003;41779;52.360;31.026;2022-11-15T17:39:45;20;14.8;10.2
55857;PMS7003;41779;52.360;31.026;2022-11-15T17:44:33;23.6;15.2;9.6
55857;PMS7003;41779;52.360;31.026;2022-11-15T17:49:09;25.6;17;10.6
55857;PMS7003;41779;52.360;31.026;2022-11-15T17:54:09;24;17.2;11.4
55857;PMS7003;41779;52.360;31.026;2022-11-15T17:59:10;17.5;13;9.3
55857;PMS7003;41779;52.360;31.026;2022-11-15T18:04:39;22.4;17.6;11.8
55857;PMS7003;41779;52.360;31.026;2022-11-15T18:09:29;20.2;14.8;10.2
55857;PMS7003;41779;52.360;31.026;2022-11-15T18:14:57;21.2;16.6;11.4
55857;PMS7003;41779;52.360;31.026;2022-11-15T18:19:09;21;17.6;11.6
55857;PMS7003;41779;52.360;31.026;2022-11-15T18:24:19;24.2;16.6;11.2
55857;PMS7003;41779;52.360;31.026;2022-11-15T18:29:29;22;15.6;10.8
55857;PMS7003;41779;52.360;31.026;2022-11-15T18:34:57;24.4;18;12.4
55857;PMS7003;41779;52.360;31.026;2022-11-15T18:39:55;25.2;19.8;13.6
55857;PMS7003;41779;52.360;31.026;2022-11-15T18:44:19;22.6;18;12
55857;PMS7003;41779;52.360;31.026;2022-11-15T18:49:10;26;18.6;13.4
55857;PMS7003;41779;52.360;31.026;2022-11-15T18:54:45;30.4;21.4;13.2
55857;PMS7003;41779;52.360;31.026;2022-11-15T18:59:31;27.8;19.5;13
55857;PMS7003;41779;52.360;31.026;2022-11-15T19:04:29;29;20.4;12.6
55857;PMS7003;41779;52.360;31.026;2022-11-15T19:09:11;29;20.4;13.2
55857;PMS7003;41779;52.360;31.026;2022-11-15T19:14:19;24.8;20.4;13.8
55857;PMS7003;41779;52.360;31.026;2022-11-15T19:19:43;26.4;18.6;12.8
55857;PMS7003;41779;52.360;31.026;2022-11-15T19:24:25;26;20.2;13
55857;PMS7003;41779;52.360;31.026;2022-11-15T19:29:57;28.8;18.6;12.2
55857;PMS7003;41779;52.360;31.026;2022-11-15T19:34:09;26;19;12.8
55857;PMS7003;41779;52.360;31.026;2022-11-15T19:39:19;26.6;18.6;12.4
55857;PMS7003;41779;52.360;31.026;2022-11-15T19:44:31;24.8;17.6;11.2
55857;PMS7003;41779;52.360;31.026;2022-11-15T19:49:57;26.2;17.2;12.4
55857;PMS7003;41779;52.360;31.026;2022-11-15T19:54:57;26.8;17.8;12.2
55857;PMS7003;41779;52.360;31.026;2022-11-15T19:59:19;23;16.6;11.6
55857;PMS7003;41779;52.360;31.026;2022-11-15T20:04:19;22;17.8;12
55857;PMS7003;41779;52.360;31.026;2022-11-15T20:09:31;22.2;18.4;11.2
55857;PMS7003;41779;52.360;31.026;2022-11-15T20:14:45;26.2;21.2;12.2
55857;PMS7003;41779;52.360;31.026;2022-11-15T20:19:29;26.6;19;12
55857;PMS7003;41779;52.360;31.026;2022-11-15T20:24:57;25.8;20;13.6
55857;PMS7003;41779;52.360;31.026;2022-11-15T20:29:09;23.2;18.4;12.6
55857;PMS7003;41779;52.360;31.026;2022-11-15T20:34:59;28.2;20;12.8
55857;PMS7003;41779;52.360;31.026;2022-11-15T20:39:31;22;18.4;13.4
55857;PMS7003;41779;52.360;31.026;2022-11-15T20:44:57;21.8;16.2;11.2
55857;PMS7003;41779;52.360;31.026;2022-11-15T20:49:19;22.6;18.8;12
55857;PMS7003;41779;52.360;31.026;2022-11-15T20:54:19;24;17.4;11.8
55857;PMS7003;41779;52.360;31.026;2022-11-15T20:59:29;22.2;18.2;12.2
55857;PMS7003;41779;52.360;31.026;2022-11-15T21:04:31;22.8;16.5;10.5
55857;PMS7003;41779;52.360;31.026;2022-11-15T21:09:59;26.2;19.2;11.8
55857;PMS7003;41779;52.360;31.026;2022-11-15T21:14:57;27.2;18.8;12.4
55857;PMS7003;41779;52.360;31.026;2022-11-15T21:19:31;23.2;16;10.8
55857;PMS7003;41779;52.360;31.026;2022-11-15T21:24:45;21.8;16.2;9.8
55857;PMS7003;41779;52.360;31.026;2022-11-15T21:29:41;24.6;17.2;10.8
55857;PMS7003;41779;52.360;31.026;2022-11-15T21:34:29;23.4;16.8;12
55857;PMS7003;41779;52.360;31.026;2022-11-15T21:39:57;18.6;15.8;10.8
55857;PMS7003;41779;52.360;31.026;2022-11-15T21:44:43;18.3;13.3;7.3
55857;PMS7003;41779;52.360;31.026;2022-11-15T21:49:45;24.4;16.2;10.2
55857;PMS7003;41779;52.360;31.026;2022-11-15T21:54:29;24;17.2;11
55857;PMS7003;41779;52.360;31.026;2022-11-15T21:59:53;22;17.4;11.8
55857;PMS7003;41779;52.360;31.026;2022-11-15T22:04:37;22.2;16.6;11.4
55857;PMS7003;41779;52.360;31.026;2022-11-15T22:09:15;24;15.8;10.6
55857;PMS7003;41779;52.360;31.026;2022-11-15T22:14:39;20.8;14.8;10.6
55857;PMS7003;41779;52.360;31.026;2022-11-15T22:19:41;22.3;17;11
55857;PMS7003;41779;52.360;31.026;2022-11-15T22:24:53;22.6;18.2;12
55857;PMS7003;41779;52.360;31.026;2022-11-15T22:29:51;18.6;15;10.4
55857;PMS7003;41779;52.360;31.026;2022-11-15T22:34:09;18.6;15.8;10
55857;PMS7003;41779;52.360;31.026;2022-11-15T22:39:41;19.8;15.6;10.4
55857;PMS7003;41779;52.360;31.026;2022-11-15T22:44:39;20.4;15.2;11.2
55857;PMS7003;41779;52.360;31.026;2022-11-15T22:49:27;24.2;16.2;10.8
55857;PMS7003;41779;52.360;31.026;2022-11-15T22:54:53;21;16.2;11.6
55857;PMS7003;41779;52.360;31.026;2022-11-15T22:59:15;21.2;15.4;9.6
55857;PMS7003;41779;52.360;31.026;2022-11-15T23:04:53;18.8;15.4;10.8
55857;PMS7003;41779;52.360;31.026;2022-11-15T23:09:15;17.6;15;10
55857;PMS7003;41779;52.360;31.026;2022-11-15T23:14:53;17.8;13.2;9.8
55857;PMS7003;41779;52.360;31.026;2022-11-15T23:19:27;19.3;14.3;9.3
55857;PMS7003;41779;52.360;31.026;2022-11-15T23:24:16;19.2;14.2;9.8
55857;PMS7003;41779;52.360;31.026;2022-11-15T23:29:39;20.8;14.2;9.4
55857;PMS7003;41779;52.360;31.026;2022-11-15T23:34:42;14.6;13;8.6
55857;PMS7003;41779;52.360;31.026;2022-11-15T23:39:53;17.2;13;9.2
55857;PMS7003;41779;52.360;31.026;2022-11-15T23:44:55;20.4;13.2;9.4
55857;PMS7003;41779;52.360;31.026;2022-11-15T23:49:15;17.8;14.6;9
55857;PMS7003;41779;52.360;31.026;2022-11-15T23:54:41;15;12.6;9.6
55857;PMS7003;41779;52.360;31.026;2022-11-15T23:59:40;22.2;14.2;9.2
